Pagrindinis puslapis
METAR-TAF:

METAR-TAF

Oro uostai :

Manado, Indonezija

platuma: 01-32N, ilguma: 124-55E, Aukštis: 80 m

Dabartinis oras

Ataskaita buvo paskelbta 30 minutes, ne 07:30 UTC
Vėjas 2 kt nuo kintamojo kryptimis
Temperatūra 27°C
Drėgmė 79%
Slėgis 1010 hPa
Matomumas: 9000 m
Išsisklaidę debesys ne aukštis 2000 ft

METAR: WAMM 230730Z VRB02KT 9000 SCT020 27/23 Q1010 NOSIG

Laikas: 15:00 (08:00 UTC)

Prognozė

Ataskaita buvo paskelbta 3 valandos ir 0 minutes, ne 05:00 UTC
Prognozė galioja nuo 23 metu 06 UTC su 24 metu 12 UTC
Vėjas 10 kt iš Šiaurės/Šiaurės Rytų
Matomumas 10 km arba daugiau
Išsisklaidę debesys ne aukštis 2100 ft
Tikimybė 30% :
Laikinai
nuo 23 metu 06 UTC su 23 metu 10 UTC
Matomumas: 7000 m
Mažai debesys ne aukštis 1800 ft, Liūtiniai kamuoliniai debesys.
lietus
Tapsmas
nuo 23 metu 11 UTC su 23 metu 12 UTC
Vėjas 2 kt nuo kintamojo kryptimis

TAF: WAMM 230500Z 2306/2412 02010KT 9999 SCT021 PROB30 TEMPO 2306/2310 7000 -RA FEW018CB BECMG 2311/2312 VRB02KT

Orai ataskaitas ir orų prognozės (METAR, TAF).

turimą stotys yra geltonos ir raudonos taškus žemėlapyje.

Perkelti pele per norėdami pamatyti stoties vardą.

Tada spustelėkite, norėdami matyti oro stebėjimo ir prognozės.

Norėdami pakeisti žemėlapį: spustelėkite ant žalios mygtukų su juodo kryžiaus žemyn,; žalią mygtuką su brūkšneliu, jei norite nutolinti; arba žalių rodyklių gretimoms žemėlapius.


METAR-TAF: